Time;durP1;ratioP1;P1;durP2;ratioP2;P2;SDS_P1;SDS_P2;PMS_P1;PMS_P2;Temp;Humidity;BMP_temperature;BMP_pressure;BME280_temperature;BME280_humidity;BME280_pressure;Samples;Min_cycle;Max_cycle;Signal;HPM_P1;HPM_P2
2022/02/12 00:00:36;;;;;;;;;;;;;;;5.19;85.73;100937.44;1767849;80;20633;-81
2022/02/12 00:03:02;;;;;;;;;;;;;;;5.10;85.87;100947.69;1762628;80;20125;-81
2022/02/12 00:05:27;;;;;;;;;;;;;;;5.07;85.45;100951.81;1766409;80;20145;-81
2022/02/12 00:07:54;;;;;;;;;;;;;;;4.86;86.01;100948.33;1775275;80;20559;-80
2022/02/12 00:10:19;;;;;;;;;;;;;;;4.92;85.69;100943.17;1769863;79;20174;-81
2022/02/12 00:12:45;;;;;;;;;;;;;;;4.78;85.85;100966.31;1763475;79;21232;-80
2022/02/12 00:15:10;;;;;;;;;;;;;;;4.70;85.34;100960.73;1766267;80;20514;-81
2022/02/12 00:17:36;;;;;;;;;;;;;;;4.80;85.39;100967.04;1769421;80;20163;-80
2022/02/12 00:20:03;;;;;;;;;;;;;;;4.94;84.86;100969.63;1759985;80;21944;-82
2022/02/12 00:22:29;;;;;;;;;;;;;;;4.74;85.44;100988.37;1764477;80;20339;-80
2022/02/12 00:24:55;;;;;;;;;;;;;;;4.84;85.34;100979.00;1769725;80;20109;-80
2022/02/12 00:27:20;;;;;;;;;;;;;;;4.84;84.99;100997.32;1772528;79;20214;-80
2022/02/12 00:29:46;;;;;;;;;;;;;;;4.95;84.11;101001.39;1768818;79;20151;-80
2022/02/12 00:32:11;;;;;;;;;;;;;;;4.91;83.59;101052.27;1766348;79;21198;-80
2022/02/12 00:34:37;;;;;;;;;;;;;;;5.09;82.89;101008.83;1770344;80;20257;-80
2022/02/12 00:37:03;;;;;;;;;;;;;;;5.14;82.69;101019.83;1766881;80;20168;-80
2022/02/12 00:39:28;;;;;;;;;;;;;;;4.85;83.50;101048.73;1763158;80;20196;-80
2022/02/12 00:41:54;;;;;;;;;;;;;;;4.57;84.73;101042.61;1761680;80;20442;-81
2022/02/12 00:44:21;;;;;;;;;;;;;;;4.66;84.16;101073.44;1759249;80;21884;-81
2022/02/12 00:46:47;;;;;;;;;;;;;;;4.81;83.91;101060.31;1755529;80;20116;-80
2022/02/12 00:49:13;;;;;;;;;;;;;;;4.57;82.92;101080.53;1754647;80;20160;-80
2022/02/12 00:51:38;;;;;;;;;;;;;;;4.48;81.13;101087.64;1755196;80;20634;-80
2022/02/12 00:54:06;;;;;;;;;;;;;;;4.57;80.21;101076.61;1756217;80;20176;-80
2022/02/12 00:56:31;;;;;;;;;;;;;;;4.35;79.79;101084.08;1756306;80;21281;-80
2022/02/12 00:58:58;;;;;;;;;;;;;;;4.64;79.12;101093.59;1758675;80;20834;-80
2022/02/12 01:01:24;;;;;;;;;;;;;;;4.72;78.44;101084.44;1756392;80;20203;-80
2022/02/12 01:03:53;;;;;;;;;;;;;;;4.60;77.30;101090.81;1754504;80;20954;-80
2022/02/12 01:06:19;;;;;;;;;;;;;;;4.55;76.42;101105.92;1749500;80;20147;-80
2022/02/12 01:08:45;;;;;;;;;;;;;;;4.53;76.74;101090.80;1752597;80;21215;-80
2022/02/12 01:11:13;;;;;;;;;;;;;;;4.72;76.54;101110.12;1759352;80;20144;-80
2022/02/12 01:13:39;;;;;;;;;;;;;;;4.68;77.12;101108.18;1754559;80;20148;-81
2022/02/12 01:16:04;;;;;;;;;;;;;;;4.73;77.25;101115.75;1751810;80;20568;-81
2022/02/12 01:18:30;;;;;;;;;;;;;;;4.59;77.80;101121.82;1757040;80;20465;-81
2022/02/12 01:20:55;;;;;;;;;;;;;;;4.68;78.27;101125.66;1759798;80;20635;-82
2022/02/12 01:23:21;;;;;;;;;;;;;;;4.64;78.82;101151.15;1756692;80;20203;-82
2022/02/12 01:25:48;;;;;;;;;;;;;;;4.66;78.79;101138.84;1760293;80;20193;-77
2022/02/12 01:28:17;;;;;;;;;;;;;;;4.65;79.37;101149.39;1755387;80;20130;-81
2022/02/12 01:30:44;;;;;;;;;;;;;;;4.63;79.49;101146.88;1747721;80;20601;-83
2022/02/12 01:33:14;;;;;;;;;;;;;;;4.56;79.26;101149.47;1753494;80;22020;-81
2022/02/12 01:35:39;;;;;;;;;;;;;;;4.53;79.56;101146.21;1759617;80;20173;-82
2022/02/12 01:38:05;;;;;;;;;;;;;;;4.21;80.61;101170.73;1756935;80;20591;-83
2022/02/12 01:40:31;;;;;;;;;;;;;;;4.48;80.11;101171.33;1753540;80;21113;-82
2022/02/12 01:42:56;;;;;;;;;;;;;;;4.47;79.92;101174.88;1756827;80;20222;-83
2022/02/12 01:45:22;;;;;;;;;;;;;;;4.42;80.33;101171.70;1765722;80;21264;-81
2022/02/12 01:47:48;;;;;;;;;;;;;;;4.20;80.60;101183.41;1751568;80;20271;-81
2022/02/12 01:50:15;;;;;;;;;;;;;;;4.35;79.75;101183.44;1758373;80;20465;-82
2022/02/12 01:52:42;;;;;;;;;;;;;;;4.28;79.66;101189.03;1758075;80;20172;-82
2022/02/12 01:55:08;;;;;;;;;;;;;;;4.22;79.53;101189.39;1759071;80;20488;-82
2022/02/12 01:57:35;;;;;;;;;;;;;;;4.09;79.69;101192.36;1755251;80;21858;-82
2022/02/12 02:00:00;;;;;;;;;;;;;;;4.24;78.89;101204.54;1765308;80;20120;-82
2022/02/12 02:02:26;;;;;;;;;;;;;;;4.05;78.09;101231.35;1757232;79;20160;-81
2022/02/12 02:04:52;;;;;;;;;;;;;;;4.38;77.50;101210.72;1753244;80;20117;-82
2022/02/12 02:07:17;;;;;;;;;;;;;;;4.22;77.55;101222.55;1756013;80;20128;-81
2022/02/12 02:09:43;;;;;;;;;;;;;;;4.21;77.54;101215.63;1755752;80;21061;-82
2022/02/12 02:12:09;;;;;;;;;;;;;;;4.16;76.97;101234.19;1755289;80;20446;-81
2022/02/12 02:14:41;;;;;;;;;;;;;;;4.36;76.75;101228.28;1757140;79;20212;-81
2022/02/12 02:17:08;;;;;;;;;;;;;;;4.32;76.73;101234.17;1753831;79;20323;-81
2022/02/12 02:19:33;;;;;;;;;;;;;;;4.21;76.41;101226.94;1755247;79;20530;-81
2022/02/12 02:22:01;;;;;;;;;;;;;;;4.31;76.11;101252.91;1762234;80;21631;-81
2022/02/12 02:24:27;;;;;;;;;;;;;;;4.13;76.33;101260.50;1758353;80;20816;-82
2022/02/12 02:27:14;;;;;;;;;;;;;;;4.35;75.24;101255.36;1758250;80;20307;-81
2022/02/12 02:29:40;;;;;;;;;;;;;;;4.02;73.70;101262.89;1758890;80;20181;-81
2022/02/12 02:32:07;;;;;;;;;;;;;;;3.91;73.75;101302.69;1759254;80;20179;-81
2022/02/12 02:34:33;;;;;;;;;;;;;;;3.97;74.43;101288.45;1764969;80;21250;-82
2022/02/12 02:36:58;;;;;;;;;;;;;;;4.01;75.08;101293.42;1756950;80;20161;-81
2022/02/12 02:39:24;;;;;;;;;;;;;;;4.25;75.06;101309.48;1759368;80;20597;-82
2022/02/12 02:41:49;;;;;;;;;;;;;;;4.13;75.53;101301.02;1759368;80;20150;-82
2022/02/12 02:44:15;;;;;;;;;;;;;;;4.25;75.53;101308.66;1767740;80;20172;-81
2022/02/12 02:46:40;;;;;;;;;;;;;;;3.97;75.70;101306.73;1752965;80;21072;-81
2022/02/12 02:49:06;;;;;;;;;;;;;;;4.19;75.69;101318.98;1756432;80;20452;-81
2022/02/12 02:57:00;;;;;;;;;;;;;;;4.34;74.59;101343.91;1754065;80;20221;-81
2022/02/12 02:59:25;;;;;;;;;;;;;;;4.23;74.65;101347.95;1752356;80;21138;-81
2022/02/12 03:01:53;;;;;;;;;;;;;;;4.42;73.82;101356.08;1753266;80;20667;-81
2022/02/12 03:04:21;;;;;;;;;;;;;;;4.16;74.34;101351.83;1750496;80;20138;-81
2022/02/12 03:06:47;;;;;;;;;;;;;;;4.17;74.24;101350.91;1745960;80;20171;-81
2022/02/12 03:09:13;;;;;;;;;;;;;;;4.33;73.62;101348.75;1751267;80;20200;-81
2022/02/12 03:11:38;;;;;;;;;;;;;;;4.23;74.22;101385.03;1764372;80;22000;-80
2022/02/12 03:14:04;;;;;;;;;;;;;;;4.25;74.58;101376.63;1749949;80;20203;-80
2022/02/12 03:16:29;;;;;;;;;;;;;;;4.34;74.65;101386.58;1748332;80;20146;-81
2022/02/12 03:18:55;;;;;;;;;;;;;;;4.37;74.60;101385.58;1746382;80;20170;-81
2022/02/12 03:21:21;;;;;;;;;;;;;;;4.27;75.08;101380.86;1720348;81;20503;-81
2022/02/12 03:23:46;;;;;;;;;;;;;;;4.16;75.67;101406.73;1756157;80;21841;-80
2022/02/12 03:26:12;;;;;;;;;;;;;;;4.10;76.05;101393.98;1759203;80;20118;-81
2022/02/12 03:28:38;;;;;;;;;;;;;;;4.02;76.52;101400.11;1745556;80;20275;-80
2022/02/12 03:31:03;;;;;;;;;;;;;;;3.73;77.80;101415.58;1736237;80;20169;-80
2022/02/12 03:33:29;;;;;;;;;;;;;;;4.02;77.69;101413.17;1735827;80;20172;-81
2022/02/12 03:35:56;;;;;;;;;;;;;;;3.88;78.20;101421.27;1741204;80;21158;-80
2022/02/12 03:38:26;;;;;;;;;;;;;;;4.07;77.73;101420.30;1740437;80;20996;-81
2022/02/12 03:41:02;;;;;;;;;;;;;;;3.76;78.72;101428.02;1739463;80;20193;-80
2022/02/12 03:43:29;;;;;;;;;;;;;;;3.68;79.10;101428.02;1741380;80;20228;-80
2022/02/12 03:45:57;;;;;;;;;;;;;;;3.71;79.45;101443.53;1767006;80;20172;-80
2022/02/12 03:48:23;;;;;;;;;;;;;;;3.70;79.82;101451.02;1765681;81;21789;-81
2022/02/12 03:50:48;;;;;;;;;;;;;;;3.71;79.60;101446.15;1765150;80;20196;-80
2022/02/12 03:53:14;;;;;;;;;;;;;;;3.70;79.75;101454.93;1766188;80;20135;-81
2022/02/12 03:55:40;;;;;;;;;;;;;;;3.76;79.56;101455.92;1767034;81;20709;-81
2022/02/12 03:58:13;;;;;;;;;;;;;;;3.67;80.02;101470.77;1766661;81;20196;-80
2022/02/12 04:00:39;;;;;;;;;;;;;;;3.61;80.14;101475.83;1770690;80;21168;-80
2022/02/12 04:03:05;;;;;;;;;;;;;;;3.65;80.18;101476.51;1766563;81;20183;-83
2022/02/12 04:05:31;;;;;;;;;;;;;;;3.59;80.09;101472.45;1766159;79;20199;-81
2022/02/12 04:07:57;;;;;;;;;;;;;;;3.51;80.51;101485.91;1766622;80;20483;-81
2022/02/12 04:10:22;;;;;;;;;;;;;;;3.36;80.61;101487.51;1768131;81;20207;-80
2022/02/12 04:12:54;;;;;;;;;;;;;;;3.45;80.79;101491.44;1766678;80;21113;-80
2022/02/12 04:15:20;;;;;;;;;;;;;;;3.45;80.79;101495.36;1767693;80;20434;-81
2022/02/12 04:17:46;;;;;;;;;;;;;;;3.41;81.19;101500.34;1767322;81;20181;-80
2022/02/12 04:20:13;;;;;;;;;;;;;;;3.53;80.35;101512.78;1767344;81;20976;-80
2022/02/12 04:22:41;;;;;;;;;;;;;;;3.40;80.47;101511.69;1763728;79;20533;-80
2022/02/12 04:25:10;;;;;;;;;;;;;;;3.28;80.95;101512.30;1768188;80;21284;-82
2022/02/12 04:27:38;;;;;;;;;;;;;;;3.34;80.92;101507.64;1764749;79;20129;-82
2022/02/12 04:30:04;;;;;;;;;;;;;;;3.20;80.87;101516.14;1765158;81;20189;-80
2022/02/12 04:32:30;;;;;;;;;;;;;;;3.36;80.56;101512.78;1765628;80;20133;-82
2022/02/12 04:34:55;;;;;;;;;;;;;;;3.32;80.87;101526.90;1764043;81;20159;-82
2022/02/12 04:37:22;;;;;;;;;;;;;;;3.24;80.66;101528.11;1767190;80;21093;-81
2022/02/12 04:39:47;;;;;;;;;;;;;;;3.10;81.39;101520.11;1764776;80;20486;-82
2022/02/12 04:42:13;;;;;;;;;;;;;;;3.01;81.53;101525.77;1768862;79;20145;-80
2022/02/12 04:44:43;;;;;;;;;;;;;;;3.04;81.64;101532.14;1756753;79;20144;-82
2022/02/12 04:47:09;;;;;;;;;;;;;;;3.03;81.69;101531.75;1762693;79;20164;-83
2022/02/12 04:49:35;;;;;;;;;;;;;;;2.94;81.78;101537.44;1755164;79;21097;-82
2022/02/12 04:52:01;;;;;;;;;;;;;;;2.93;81.78;101533.12;1761125;80;20129;-79
2022/02/12 04:54:26;;;;;;;;;;;;;;;2.98;81.86;101541.57;1761340;80;20164;-79
2022/02/12 04:56:52;;;;;;;;;;;;;;;3.10;81.21;101543.59;1757135;79;20419;-82
2022/02/12 04:59:18;;;;;;;;;;;;;;;2.88;82.07;101546.38;1757120;80;20165;-79
2022/02/12 05:01:44;;;;;;;;;;;;;;;2.82;81.97;101546.20;1755960;79;22012;-79
2022/02/12 05:04:10;;;;;;;;;;;;;;;2.85;81.56;101551.75;1760004;80;20247;-82
2022/02/12 05:06:36;;;;;;;;;;;;;;;3.00;81.50;101559.33;1756140;79;20257;-80
2022/02/12 05:09:03;;;;;;;;;;;;;;;2.88;81.67;101564.18;1748750;80;20511;-80
2022/02/12 05:11:29;;;;;;;;;;;;;;;2.86;81.82;101564.72;1758475;80;20213;-80
2022/02/12 05:13:54;;;;;;;;;;;;;;;2.92;81.89;101564.04;1758448;80;21096;-80
2022/02/12 05:16:20;;;;;;;;;;;;;;;2.97;81.93;101564.22;1758079;79;20634;-80
2022/02/12 05:18:45;;;;;;;;;;;;;;;2.71;82.29;101562.81;1755821;80;20188;-80
2022/02/12 05:21:11;;;;;;;;;;;;;;;2.79;82.61;101572.44;1751237;79;20187;-80
2022/02/12 05:23:37;;;;;;;;;;;;;;;2.73;82.68;101568.80;1757469;79;20642;-82
2022/02/12 05:26:02;;;;;;;;;;;;;;;2.86;82.09;101566.03;1759771;79;21094;-79
2022/02/12 05:28:28;;;;;;;;;;;;;;;2.81;82.32;101577.14;1753866;79;20207;-80
2022/02/12 05:30:54;;;;;;;;;;;;;;;2.81;82.53;101579.75;1742865;80;20652;-79
2022/02/12 05:33:19;;;;;;;;;;;;;;;2.73;82.78;101580.54;1761613;79;20177;-80
2022/02/12 05:35:45;;;;;;;;;;;;;;;2.73;82.86;101585.76;1750742;79;20479;-79
2022/02/12 05:38:12;;;;;;;;;;;;;;;2.60;83.23;101583.33;1753094;79;22410;-80
2022/02/12 05:40:40;;;;;;;;;;;;;;;2.78;82.92;101598.16;1753575;79;20269;-80
2022/02/12 05:43:07;;;;;;;;;;;;;;;2.88;82.68;101605.92;1742071;80;20488;-80
2022/02/12 05:45:32;;;;;;;;;;;;;;;2.65;83.21;101604.83;1756228;80;20144;-80
2022/02/12 05:47:59;;;;;;;;;;;;;;;2.44;83.96;101616.61;1755903;80;20135;-80
2022/02/12 05:50:27;;;;;;;;;;;;;;;2.62;83.68;101618.00;1760276;79;21096;-80
2022/02/12 05:52:52;;;;;;;;;;;;;;;2.56;83.45;101613.89;1762220;80;20120;-81
2022/02/12 05:55:18;;;;;;;;;;;;;;;2.69;83.13;101627.27;1767282;80;20250;-80
2022/02/12 05:57:43;;;;;;;;;;;;;;;2.63;83.38;101634.05;1760440;79;20145;-80
2022/02/12 06:00:10;;;;;;;;;;;;;;;2.59;83.33;101645.52;1756569;79;20611;-80
2022/02/12 06:02:36;;;;;;;;;;;;;;;2.44;83.91;101645.73;1759667;79;22528;-80
2022/02/12 06:05:02;;;;;;;;;;;;;;;2.44;84.23;101648.33;1756506;80;20173;-80
2022/02/12 06:07:28;;;;;;;;;;;;;;;2.35;84.46;101657.42;1759805;80;20129;-81
2022/02/12 06:09:54;;;;;;;;;;;;;;;2.38;84.70;101659.02;1760720;79;20191;-80
2022/02/12 06:12:19;;;;;;;;;;;;;;;2.53;83.97;101659.66;1760229;80;20133;-79
2022/02/12 06:14:45;;;;;;;;;;;;;;;2.61;83.65;101658.03;1759603;80;21986;-80
2022/02/12 06:17:10;;;;;;;;;;;;;;;2.55;83.67;101663.08;1759170;80;20139;-81
2022/02/12 06:19:36;;;;;;;;;;;;;;;2.47;84.35;101659.50;1762156;80;20159;-83
2022/02/12 06:22:02;;;;;;;;;;;;;;;2.64;83.47;101660.50;1758874;79;20179;-81
2022/02/12 06:24:27;;;;;;;;;;;;;;;2.39;84.28;101664.17;1758684;80;20223;-81
2022/02/12 06:26:57;;;;;;;;;;;;;;;2.56;83.84;101670.43;1760217;79;20984;-81
2022/02/12 06:29:21;;;;;;;;;;;;;;;2.54;83.87;101669.66;1763016;80;20197;-81
2022/02/12 06:31:48;;;;;;;;;;;;;;;2.58;83.58;101672.50;1761125;80;20619;-81
2022/02/12 06:34:13;;;;;;;;;;;;;;;2.48;84.11;101674.67;1761200;80;20205;-81
2022/02/12 06:36:39;;;;;;;;;;;;;;;2.57;83.73;101676.05;1756198;80;20627;-82
2022/02/12 06:39:05;;;;;;;;;;;;;;;2.57;83.62;101674.74;1761884;79;22008;-82
2022/02/12 06:41:30;;;;;;;;;;;;;;;2.65;83.12;101674.78;1755916;79;20184;-82
2022/02/12 06:43:56;;;;;;;;;;;;;;;2.71;83.18;101669.77;1759360;79;21036;-82
2022/02/12 06:46:21;;;;;;;;;;;;;;;2.76;82.52;101678.22;1758402;80;20185;-82
2022/02/12 06:48:47;;;;;;;;;;;;;;;2.72;82.69;101674.08;1757996;80;20903;-83
2022/02/12 06:51:15;;;;;;;;;;;;;;;2.91;81.84;101666.73;1760964;80;21076;-83
2022/02/12 06:53:40;;;;;;;;;;;;;;;2.83;81.66;101674.44;1760432;80;20123;-83
2022/02/12 06:56:06;;;;;;;;;;;;;;;2.86;81.71;101684.73;1757477;79;20187;-83
2022/02/12 06:58:32;;;;;;;;;;;;;;;2.97;81.46;101676.89;1761836;80;20244;-80
2022/02/12 07:00:58;;;;;;;;;;;;;;;3.00;80.80;101681.98;1760525;79;20285;-80
2022/02/12 07:03:23;;;;;;;;;;;;;;;2.95;81.05;101685.23;1760804;80;22002;-83
2022/02/12 07:05:49;;;;;;;;;;;;;;;2.77;81.42;101685.14;1760943;80;20120;-81
2022/02/12 07:08:15;;;;;;;;;;;;;;;2.80;81.21;101690.22;1758247;79;20199;-80
2022/02/12 07:10:40;;;;;;;;;;;;;;;2.70;81.64;101692.84;1760539;79;20151;-82
2022/02/12 07:13:06;;;;;;;;;;;;;;;2.80;81.12;101700.66;1759004;80;20778;-80
2022/02/12 07:15:31;;;;;;;;;;;;;;;2.84;81.14;101717.88;1757440;79;22450;-80
2022/02/12 07:17:57;;;;;;;;;;;;;;;2.81;81.42;101728.89;1760240;80;20169;-81
2022/02/12 07:20:23;;;;;;;;;;;;;;;3.01;80.73;101728.02;1758229;80;20714;-81
2022/02/12 07:22:48;;;;;;;;;;;;;;;2.80;81.04;101738.48;1763299;80;20536;-82
2022/02/12 07:25:14;;;;;;;;;;;;;;;2.69;81.58;101749.85;1750972;80;20140;-82
2022/02/12 07:27:40;;;;;;;;;;;;;;;2.80;80.92;101742.40;1762696;80;21143;-82
2022/02/12 07:30:07;;;;;;;;;;;;;;;2.92;80.68;101755.81;1755350;79;20122;-82
2022/02/12 07:32:35;;;;;;;;;;;;;;;2.91;80.20;101754.14;1759286;80;20114;-81
2022/02/12 07:35:01;;;;;;;;;;;;;;;2.65;81.84;101763.92;1762938;79;20624;-83
2022/02/12 07:37:27;;;;;;;;;;;;;;;2.60;82.03;101771.94;1757737;80;20132;-82
2022/02/12 07:39:52;;;;;;;;;;;;;;;2.83;81.08;101778.80;1764854;79;21765;-82
2022/02/12 07:42:18;;;;;;;;;;;;;;;2.75;81.63;101778.28;1759441;79;20159;-81
2022/02/12 07:44:43;;;;;;;;;;;;;;;2.77;81.40;101780.36;1761588;79;20140;-82
2022/02/12 07:47:09;;;;;;;;;;;;;;;2.87;80.96;101781.67;1757676;79;20429;-82
2022/02/12 07:49:34;;;;;;;;;;;;;;;3.00;80.55;101792.89;1761425;80;20219;-83
2022/02/12 07:52:00;;;;;;;;;;;;;;;3.06;80.55;101795.20;1758720;80;21054;-82
2022/02/12 07:54:25;;;;;;;;;;;;;;;3.20;79.94;101793.29;1758518;80;20454;-81
2022/02/12 07:56:54;;;;;;;;;;;;;;;3.27;79.19;101789.50;1756903;80;20213;-81
2022/02/12 07:59:19;;;;;;;;;;;;;;;3.28;78.23;101798.17;1760479;80;20148;-81
2022/02/12 08:01:45;;;;;;;;;;;;;;;3.34;78.19;101800.08;1753938;80;20197;-80
2022/02/12 08:04:11;;;;;;;;;;;;;;;3.39;77.77;101802.48;1754776;79;21203;-81
2022/02/12 08:09:20;;;;;;;;;;;;;;;3.24;78.66;101817.05;1759572;79;20181;-80
2022/02/12 08:11:53;;;;;;;;;;;;;;;3.64;77.29;101818.34;1754735;80;20129;-81
2022/02/12 08:14:13;;;;;;;;;;;;;;;3.59;77.24;101828.54;1757433;79;20106;-80
2022/02/12 08:16:40;;;;;;;;;;;;;;;3.62;76.69;101826.70;1763094;80;21805;-80
2022/02/12 08:19:05;;;;;;;;;;;;;;;3.73;76.49;101829.69;1758389;80;20150;-80
2022/02/12 08:21:31;;;;;;;;;;;;;;;3.86;75.53;101826.05;1760837;80;20483;-83
2022/02/12 08:23:57;;;;;;;;;;;;;;;3.62;75.66;101841.06;1750573;80;20207;-81
2022/02/12 08:26:22;;;;;;;;;;;;;;;;;;1758913;80;20146;-82
2022/02/12 08:28:48;;;;;;;;;;;;;;;3.82;76.32;101847.53;1759661;79;20258;-82
2022/02/12 08:31:13;;;;;;;;;;;;;;;3.72;76.25;101842.35;1761127;80;20149;-82
2022/02/12 08:33:39;;;;;;;;;;;;;;;3.88;75.74;101833.34;1751683;80;20966;-83
2022/02/12 08:36:05;;;;;;;;;;;;;;;4.06;75.35;101834.26;1758838;80;20244;-82
2022/02/12 08:38:30;;;;;;;;;;;;;;;4.10;73.81;101843.63;1758272;80;20250;-82
2022/02/12 08:40:56;;;;;;;;;;;;;;;4.36;73.53;101846.78;1767337;80;21092;-81
2022/02/12 08:43:22;;;;;;;;;;;;;;;4.43;72.98;101854.27;1755211;80;20326;-82
2022/02/12 08:45:47;;;;;;;;;;;;;;;4.46;72.94;101858.52;1759068;79;20141;-82
2022/02/12 08:48:13;;;;;;;;;;;;;;;4.53;72.02;101845.97;1760501;80;20235;-82
2022/02/12 08:50:38;;;;;;;;;;;;;;;4.40;72.26;101866.19;1784343;80;20513;-82
2022/02/12 08:53:05;;;;;;;;;;;;;;;4.38;71.30;101860.63;1738904;80;21043;-82
2022/02/12 08:55:31;;;;;;;;;;;;;;;4.62;71.16;101871.22;1740776;80;20170;-82
2022/02/12 08:57:56;;;;;;;;;;;;;;;4.67;70.98;101874.91;1751828;80;20264;-82
2022/02/12 09:00:22;;;;;;;;;;;;;;;4.49;71.59;101878.81;1767827;80;20457;-82
2022/02/12 09:02:47;;;;;;;;;;;;;;;4.64;71.26;101865.44;1771840;80;20151;-82
2022/02/12 09:05:13;;;;;;;;;;;;;;;4.76;71.33;101868.39;1763932;80;21290;-82
2022/02/12 09:07:39;;;;;;;;;;;;;;;4.59;70.27;101879.69;1767892;80;20761;-82
2022/02/12 09:10:05;;;;;;;;;;;;;;;4.44;70.18;101878.64;1765808;80;20157;-82
2022/02/12 09:12:31;;;;;;;;;;;;;;;4.75;69.93;101881.08;1762497;79;20500;-81
2022/02/12 09:14:56;;;;;;;;;;;;;;;4.63;69.92;101874.23;1763641;80;20136;-81
2022/02/12 09:17:22;;;;;;;;;;;;;;;4.83;68.41;101876.30;1767911;80;21164;-81
2022/02/12 09:19:48;;;;;;;;;;;;;;;4.92;68.07;101888.09;1762898;79;20157;-81
2022/02/12 09:22:14;;;;;;;;;;;;;;;4.73;68.99;101894.72;1762455;80;20670;-82
2022/02/12 09:24:40;;;;;;;;;;;;;;;4.90;68.61;101889.48;1777508;79;20145;-79
2022/02/12 09:27:05;;;;;;;;;;;;;;;4.68;67.14;101889.70;1745706;80;20131;-81
2022/02/12 09:29:31;;;;;;;;;;;;;;;4.78;67.64;101899.25;1752104;80;21269;-81
2022/02/12 09:31:56;;;;;;;;;;;;;;;5.01;67.34;101900.26;1745476;80;20654;-82
2022/02/12 09:34:22;;;;;;;;;;;;;;;4.98;66.22;101903.03;1755754;80;20180;-82
2022/02/12 09:36:47;;;;;;;;;;;;;;;5.16;66.40;101909.59;1752059;80;20134;-82
2022/02/12 09:39:13;;;;;;;;;;;;;;;5.12;66.10;101909.36;1756964;80;20159;-82
2022/02/12 09:41:39;;;;;;;;;;;;;;;4.93;65.18;101915.52;1740787;80;21292;-82
2022/02/12 09:44:05;;;;;;;;;;;;;;;5.10;64.79;101912.52;1753618;80;20230;-81
2022/02/12 09:46:38;;;;;;;;;;;;;;;5.11;64.57;101918.13;1748074;81;20179;-81
2022/02/12 09:49:03;;;;;;;;;;;;;;;4.89;65.12;101923.59;1752143;81;20472;-81
2022/02/12 09:51:31;;;;;;;;;;;;;;;5.14;62.38;101921.91;1747804;80;20587;-81
2022/02/12 09:53:56;;;;;;;;;;;;;;;5.16;63.76;101918.30;1749889;80;21080;-80
2022/02/12 09:56:22;;;;;;;;;;;;;;;5.24;64.41;101924.45;1743611;81;20827;-81
2022/02/12 09:58:48;;;;;;;;;;;;;;;4.95;65.14;101926.75;1744906;81;20443;-83
2022/02/12 10:01:14;;;;;;;;;;;;;;;5.08;65.19;101930.94;1742648;81;20230;-81
2022/02/12 10:03:41;;;;;;;;;;;;;;;4.73;66.34;101933.97;1749418;81;20181;-81
2022/02/12 10:06:07;;;;;;;;;;;;;;;4.75;66.67;101953.05;1741354;81;21136;-81
2022/02/12 10:08:36;;;;;;;;;;;;;;;5.01;66.47;101947.39;1744048;81;20987;-81
2022/02/12 10:11:04;;;;;;;;;;;;;;;4.77;66.57;101951.20;1744546;81;20644;-82
2022/02/12 10:13:30;;;;;;;;;;;;;;;5.00;66.21;101948.33;1737806;81;20279;-80
2022/02/12 10:15:57;;;;;;;;;;;;;;;5.00;65.69;101951.39;1744360;81;20168;-79
2022/02/12 10:18:23;;;;;;;;;;;;;;;5.27;65.58;101950.49;1749458;81;21073;-78
2022/02/12 10:20:49;;;;;;;;;;;;;;;4.97;66.15;101958.95;1745857;81;20353;-79
2022/02/12 10:23:17;;;;;;;;;;;;;;;5.16;65.06;101952.81;1742132;81;20185;-81
2022/02/12 10:25:44;;;;;;;;;;;;;;;5.11;65.75;101944.31;1740643;80;20142;-81
2022/02/12 10:28:12;;;;;;;;;;;;;;;5.38;65.51;101945.55;1742925;80;36117;-81
2022/02/12 10:30:38;;;;;;;;;;;;;;;5.42;65.03;101953.25;1752544;80;21006;-81
2022/02/12 10:33:05;;;;;;;;;;;;;;;5.38;64.36;101959.95;1744302;80;20334;-81
2022/02/12 10:35:31;;;;;;;;;;;;;;;5.25;64.54;101954.97;1750981;80;20490;-81
2022/02/12 10:38:02;;;;;;;;;;;;;;;5.54;63.82;101956.56;1745248;80;20138;-80
2022/02/12 10:40:28;;;;;;;;;;;;;;;5.25;63.52;101957.59;1740478;80;20547;-83
2022/02/12 10:42:53;;;;;;;;;;;;;;;5.23;63.62;101960.73;1744803;80;21078;-81
2022/02/12 10:45:19;;;;;;;;;;;;;;;5.39;64.02;101956.42;1721857;81;20191;-81
2022/02/12 10:47:45;;;;;;;;;;;;;;;5.47;64.36;101961.72;1749658;80;20251;-81
2022/02/12 10:50:12;;;;;;;;;;;;;;;5.26;64.47;101959.27;1748890;80;20215;-81
2022/02/12 10:52:45;;;;;;;;;;;;;;;5.46;64.01;101960.88;1748152;80;20320;-81
2022/02/12 10:55:38;;;;;;;;;;;;;;;5.40;63.73;101948.92;1748405;80;21069;-82
2022/02/12 10:58:12;;;;;;;;;;;;;;;5.44;64.41;101947.46;1742967;80;20194;-81
2022/02/12 11:00:39;;;;;;;;;;;;;;;5.33;63.97;101957.17;1742102;80;20118;-81
2022/02/12 11:03:08;;;;;;;;;;;;;;;5.45;64.22;101945.23;1744970;80;20236;-81
2022/02/12 11:05:34;;;;;;;;;;;;;;;5.27;64.54;101945.25;1746291;81;20162;-81
2022/02/12 11:08:00;;;;;;;;;;;;;;;5.46;64.10;101949.56;1741716;80;21140;-81
2022/02/12 11:10:26;;;;;;;;;;;;;;;5.27;64.35;101941.33;1718156;80;20170;-80
2022/02/12 11:12:51;;;;;;;;;;;;;;;5.07;64.19;101943.62;1747621;80;20165;-81
2022/02/12 11:15:17;;;;;;;;;;;;;;;5.32;63.79;101935.37;1750581;80;20205;-82
2022/02/12 11:17:43;;;;;;;;;;;;;;;5.32;63.49;101944.55;1749039;81;20199;-81
2022/02/12 11:20:11;;;;;;;;;;;;;;;5.18;64.60;101931.31;1751217;80;21038;-81
2022/02/12 11:22:40;;;;;;;;;;;;;;;5.39;63.72;101928.91;1749868;81;20192;-81
2022/02/12 11:25:26;;;;;;;;;;;;;;;5.40;63.33;101926.66;1747107;80;20150;-81
2022/02/12 11:28:06;;;;;;;;;;;;;;;5.38;63.62;101920.66;1734372;80;20234;-81
2022/02/12 11:30:32;;;;;;;;;;;;;;;5.46;62.70;101931.22;1743358;80;20165;-81
2022/02/12 11:32:59;;;;;;;;;;;;;;;5.64;62.42;101932.89;1752865;80;21912;-81
2022/02/12 11:35:27;;;;;;;;;;;;;;;5.70;62.42;101936.50;1717490;81;20807;-81
2022/02/12 11:37:57;;;;;;;;;;;;;;;5.70;61.94;101929.95;1741980;81;20202;-81
2022/02/12 11:40:24;;;;;;;;;;;;;;;5.79;60.51;101928.59;1749755;80;20206;-82
2022/02/12 11:42:56;;;;;;;;;;;;;;;5.82;59.75;101927.59;1743838;81;20179;-81
2022/02/12 11:45:31;;;;;;;;;;;;;;;5.87;59.53;101919.02;1742382;81;21137;-81
2022/02/12 11:48:18;;;;;;;;;;;;;;;5.73;56.70;101932.41;1739838;81;20177;-79
2022/02/12 11:51:05;;;;;;;;;;;;;;;5.82;56.05;101934.16;1746957;80;20603;-82
2022/02/12 11:53:46;;;;;;;;;;;;;;;6.02;55.92;101935.27;1743193;81;20955;-81
2022/02/12 11:56:22;;;;;;;;;;;;;;;6.20;57.01;101922.95;1742529;81;20182;-81
2022/02/12 11:58:57;;;;;;;;;;;;;;;6.06;55.89;101928.08;1747396;81;22417;-81
2022/02/12 12:01:32;;;;;;;;;;;;;;;6.27;56.80;101920.83;1741835;80;20326;-83
2022/02/12 12:04:06;;;;;;;;;;;;;;;6.31;56.75;101913.18;1742493;80;20162;-82
2022/02/12 12:06:33;;;;;;;;;;;;;;;6.35;56.16;101914.69;1746716;81;20581;-83
2022/02/12 12:09:12;;;;;;;;;;;;;;;6.25;55.84;101920.08;1741577;80;21116;-81
2022/02/12 12:11:39;;;;;;;;;;;;;;;6.20;55.94;101914.22;1741753;81;21069;-82
2022/02/12 12:14:27;;;;;;;;;;;;;;;6.19;53.07;101923.03;1742091;81;20347;-82
2022/02/12 12:16:55;;;;;;;;;;;;;;;6.04;52.57;101933.41;1744765;80;20177;-82
2022/02/12 12:19:34;;;;;;;;;;;;;;;6.27;52.70;101923.45;1739481;81;20631;-81
2022/02/12 12:22:02;;;;;;;;;;;;;;;5.88;54.36;101924.66;1744074;80;20172;-82
2022/02/12 12:24:28;;;;;;;;;;;;;;;5.86;53.80;101916.03;1744712;81;21090;-83
2022/02/12 12:26:53;;;;;;;;;;;;;;;6.04;51.60;101932.09;1750211;80;21174;-82
2022/02/12 12:32:17;;;;;;;;;;;;;;;6.12;51.97;101908.08;1741300;81;20144;-82
2022/02/12 12:35:03;;;;;;;;;;;;;;;6.09;51.96;101920.91;1748241;81;20372;-82
2022/02/12 12:37:29;;;;;;;;;;;;;;;6.19;51.84;101914.69;1743245;80;20682;-82
2022/02/12 12:39:56;;;;;;;;;;;;;;;6.25;52.85;101912.20;1744079;80;20124;-82
2022/02/12 12:42:23;;;;;;;;;;;;;;;6.50;52.50;101902.97;1741995;80;20318;-80
2022/02/12 12:45:06;;;;;;;;;;;;;;;6.62;52.19;101908.36;1746316;81;20199;-81
2022/02/12 12:47:31;;;;;;;;;;;;;;;6.47;50.11;101901.36;1721513;81;20185;-82
2022/02/12 12:49:57;;;;;;;;;;;;;;;6.51;48.68;101892.83;1761604;80;21296;-83
2022/02/12 12:52:26;;;;;;;;;;;;;;;6.80;47.21;101892.01;1746026;80;20177;-82
2022/02/12 12:54:55;;;;;;;;;;;;;;;7.04;47.78;101890.67;1739214;80;20153;-82
2022/02/12 12:57:26;;;;;;;;;;;;;;;6.85;48.09;101899.62;1721135;80;20792;-81